Reino De Cristo — CUOA3 — position and weather

sailwx.info

Track history (hours):
 
Tides and Currents Weather Stations Pressure Air Temp Water Temp Dewpoint Dewpoint Depression Visibility Wind Speed Wind Dir Waves Ship Positions

Reino De Cristo

Last reported at 2018-Aug-17 10:52 UTC. Time now 2018-Aug-18 00:45 UTC.
Position N 41°11' W 008°42'.

Length 23 m.

Type: Fishing. MMSI: 263402470.

Date/timePositionNaut miles runAvg speedWind from/ knotsBaromVisibWave heightAir tempDewpointWater temp
2018-Aug-17 10:52N 41°11' W 008°42'0 0.0
2018-Aug-17 10:30N 41°11' W 008°42'0 0.0
2018-Aug-17 10:00N 41°11' W 008°42'0 0.0
2018-Aug-17 09:30N 41°11' W 008°42'0 0.1
2018-Aug-17 09:00N 41°11' W 008°42'3 0.5
2018-Aug-17 02:36N 41°13' W 008°45'1 9.0
2018-Aug-17 02:30N 41°13' W 008°44'2 4.6
2018-Aug-17 02:00N 41°11' W 008°42'0 0.0
2018-Aug-17 01:30N 41°11' W 008°42'0 0.0
2018-Aug-17 01:00N 41°11' W 008°42'0 0.0
2018-Aug-17 00:30N 41°11' W 008°42'0 0.0
2018-Aug-17 00:00N 41°11' W 008°42'0 0.0
2018-Aug-16 23:30N 41°11' W 008°42'0 0.0
2018-Aug-16 23:00N 41°11' W 008°42'0 0.0
2018-Aug-16 22:30N 41°11' W 008°42'0 0.0
2018-Aug-16 22:00N 41°11' W 008°42'0 0.0
2018-Aug-16 13:14N 41°11' W 008°42'0 0.0
2018-Aug-16 13:00N 41°11' W 008°42'0 0.0
2018-Aug-16 12:30N 41°11' W 008°42'0 0.0
2018-Aug-16 12:00N 41°11' W 008°42'0 0.0
2018-Aug-16 11:30N 41°11' W 008°42'0 0.0
2018-Aug-16 11:00N 41°11' W 008°42'0 0.0
2018-Aug-16 10:30N 41°11' W 008°42'0 0.0
2018-Aug-16 10:00N 41°11' W 008°42'1 1.9
2018-Aug-16 09:30N 41°10' W 008°43'3 3.8
2018-Aug-16 08:42N 41°10' W 008°47'0 0.1
2018-Aug-16 08:30N 41°10' W 008°47'0 0.1
2018-Aug-16 08:00N 41°10' W 008°47'0 0.3
2018-Aug-16 07:30N 41°10' W 008°47'2 3.5
2018-Aug-16 06:54N 41°08' W 008°46'3 1.1
2018-Aug-16 04:28N 41°08' W 008°49'1 2.8
2018-Aug-16 03:57N 41°09' W 008°48'0 0.2
2018-Aug-16 03:31N 41°09' W 008°48'0 0.1
2018-Aug-16 03:00N 41°09' W 008°48'2 4.2
2018-Aug-16 02:30N 41°07' W 008°48'2 0.6
2018-Aug-15 23:55N 41°08' W 008°50'4 7.3
2018-Aug-15 23:26N 41°12' W 008°50'1 1.3
2018-Aug-15 23:00N 41°12' W 008°50'5 9.1
2018-Aug-15 22:30N 41°08' W 008°47'4 7.5
2018-Aug-15 22:00N 41°10' W 008°43'1 0.0
2018-Aug-14 09:40N 41°11' W 008°42'0 0.0
2018-Aug-14 09:30N 41°11' W 008°42'0 0.0
2018-Aug-14 09:00N 41°11' W 008°42'0 0.0
2018-Aug-14 08:30N 41°11' W 008°42'0 0.0
2018-Aug-14 08:00N 41°11' W 008°42'1 1.2
2018-Aug-14 07:30N 41°10' W 008°42'5 0.5
2018-Aug-13 22:31N 41°15' W 008°45'1 9.1
2018-Aug-13 22:24N 41°14' W 008°45'4 9.1
2018-Aug-13 22:00N 41°10' W 008°43'1 0.1
2018-Aug-13 10:34N 41°11' W 008°42'0 0.0
2018-Aug-13 10:31N 41°11' W 008°42'0 0.0
2018-Aug-13 10:01N 41°11' W 008°42'0 0.0
2018-Aug-13 09:31N 41°11' W 008°42'0 0.0
2018-Aug-13 09:01N 41°11' W 008°42'0 0.0
2018-Aug-13 08:31N 41°11' W 008°42'5 0.5
2018-Aug-12 22:55N 41°13' W 008°48'4 9.8
2018-Aug-12 22:30N 41°11' W 008°43'  
2018-Aug-10 09:17N 41°11' W 008°42'0 0.0
2018-Aug-10 09:00N 41°11' W 008°42'0 0.0
2018-Aug-10 08:31N 41°11' W 008°42'0 0.0
2018-Aug-10 08:00N 41°11' W 008°42'0 0.0
2018-Aug-10 07:30N 41°11' W 008°42'4 7.6
2018-Aug-10 07:00N 41°14' W 008°45'1 0.1
2018-Aug-10 02:24N 41°15' W 008°45'3 8.1
2018-Aug-10 02:00N 41°12' W 008°44'2 3.0
2018-Aug-10 01:31N 41°11' W 008°42'0 0.0
2018-Aug-10 01:00N 41°11' W 008°42'0 0.0
2018-Aug-10 00:31N 41°11' W 008°42'0 0.0
2018-Aug-10 00:01N 41°11' W 008°42'0 0.0
2018-Aug-09 23:31N 41°11' W 008°42'0 0.0
2018-Aug-09 23:00N 41°11' W 008°42'0 0.0
2018-Aug-09 22:31N 41°11' W 008°42'0 0.0
2018-Aug-09 22:01N 41°11' W 008°42'0 0.0
2018-Aug-09 07:01N 41°11' W 008°42'0 0.0
2018-Aug-09 07:00N 41°11' W 008°42'2 4.9
2018-Aug-09 06:30N 41°08' W 008°42'1 0.6
2018-Aug-09 04:50N 41°08' W 008°42'310.0
2018-Aug-09 04:30N 41°11' W 008°42'0 0.5
2018-Aug-09 04:00N 41°11' W 008°42'0 0.0
2018-Aug-09 03:30N 41°11' W 008°42'0 0.0
2018-Aug-09 03:00N 41°11' W 008°42'0 0.0
2018-Aug-09 02:30N 41°11' W 008°42'0 0.0
2018-Aug-09 02:00N 41°11' W 008°42'0 0.0
2018-Aug-09 01:30N 41°11' W 008°42'2 3.2
2018-Aug-09 01:00N 41°09' W 008°43'2 0.9
2018-Aug-08 23:02N 41°09' W 008°45'010.0
2018-Aug-08 23:00N 41°09' W 008°45'3 5.5
2018-Aug-08 22:30N 41°11' W 008°42'0 0.0
2018-Aug-08 22:00N 41°11' W 008°42'0 0.2
2018-Aug-08 21:30N 41°11' W 008°42'0 0.0
2018-Aug-08 21:00N 41°11' W 008°42'0 0.0
2018-Aug-08 13:38N 41°11' W 008°42'0 0.0
2018-Aug-08 13:30N 41°11' W 008°42'0 0.0
2018-Aug-08 13:00N 41°11' W 008°42'0 0.0
2018-Aug-08 12:30N 41°11' W 008°42'0 0.0
2018-Aug-08 12:00N 41°11' W 008°42'0 0.0
2018-Aug-08 11:30N 41°11' W 008°42'0 0.6
2018-Aug-08 11:01N 41°11' W 008°42'7 1.3
2018-Aug-08 06:04N 41°04' W 008°41'1 1.2
2018-Aug-08 05:14N 41°05' W 008°42'3 9.6
2018-Aug-08 04:57N 41°07' W 008°43'4 8.4
2018-Aug-08 04:30N 41°11' W 008°42'0 0.0
2018-Aug-08 04:00N 41°11' W 008°42'0 0.0
2018-Aug-08 03:30N 41°11' W 008°42'0 0.0
2018-Aug-08 03:00N 41°11' W 008°42'0 0.0
2018-Aug-08 02:30N 41°11' W 008°42'0 0.0
2018-Aug-08 02:00N 41°11' W 008°42'0 0.0
2018-Aug-08 01:30N 41°11' W 008°42'0 0.0
2018-Aug-08 01:00N 41°11' W 008°42'0 0.0
2018-Aug-08 00:30N 41°11' W 008°42'0 0.0
2018-Aug-08 00:00N 41°11' W 008°42'0 0.0
2018-Aug-07 23:30N 41°11' W 008°42'0 0.0
2018-Aug-07 23:00N 41°11' W 008°42'0 0.0
2018-Aug-07 22:30N 41°11' W 008°42'0 0.0
2018-Aug-07 22:00N 41°11' W 008°42'  
Track history (hours):
 
Tides and Currents Weather Stations Pressure Air Temp Water Temp Dewpoint Dewpoint Depression Visibility Wind Speed Wind Dir Waves Ship Positions

Reino De Cristo

Last reported at 2018-Aug-17 10:52 UTC. Time now 2018-Aug-18 00:45 UTC.
Position N 41°11' W 008°42'.

Length 23 m.

Type: Fishing. MMSI: 263402470.

Date/timePositionNaut miles runAvg speedWind from/ knotsBaromVisibWave heightAir tempDewpointWater temp
2018-Aug-17 10:52N 41°11' W 008°42'0 0.0
2018-Aug-17 10:30N 41°11' W 008°42'0 0.0
2018-Aug-17 10:00N 41°11' W 008°42'0 0.0
2018-Aug-17 09:30N 41°11' W 008°42'0 0.1
2018-Aug-17 09:00N 41°11' W 008°42'3 0.5
2018-Aug-17 02:36N 41°13' W 008°45'1 9.0
2018-Aug-17 02:30N 41°13' W 008°44'2 4.6
2018-Aug-17 02:00N 41°11' W 008°42'0 0.0
2018-Aug-17 01:30N 41°11' W 008°42'0 0.0
2018-Aug-17 01:00N 41°11' W 008°42'0 0.0
2018-Aug-17 00:30N 41°11' W 008°42'0 0.0
2018-Aug-17 00:00N 41°11' W 008°42'0 0.0
2018-Aug-16 23:30N 41°11' W 008°42'0 0.0
2018-Aug-16 23:00N 41°11' W 008°42'0 0.0
2018-Aug-16 22:30N 41°11' W 008°42'0 0.0
2018-Aug-16 22:00N 41°11' W 008°42'0 0.0
2018-Aug-16 13:14N 41°11' W 008°42'0 0.0
2018-Aug-16 13:00N 41°11' W 008°42'0 0.0
2018-Aug-16 12:30N 41°11' W 008°42'0 0.0
2018-Aug-16 12:00N 41°11' W 008°42'0 0.0
2018-Aug-16 11:30N 41°11' W 008°42'0 0.0
2018-Aug-16 11:00N 41°11' W 008°42'0 0.0
2018-Aug-16 10:30N 41°11' W 008°42'0 0.0
2018-Aug-16 10:00N 41°11' W 008°42'1 1.9
2018-Aug-16 09:30N 41°10' W 008°43'3 3.8
2018-Aug-16 08:42N 41°10' W 008°47'0 0.1
2018-Aug-16 08:30N 41°10' W 008°47'0 0.1
2018-Aug-16 08:00N 41°10' W 008°47'0 0.3
2018-Aug-16 07:30N 41°10' W 008°47'2 3.5
2018-Aug-16 06:54N 41°08' W 008°46'3 1.1
2018-Aug-16 04:28N 41°08' W 008°49'1 2.8
2018-Aug-16 03:57N 41°09' W 008°48'0 0.2
2018-Aug-16 03:31N 41°09' W 008°48'0 0.1
2018-Aug-16 03:00N 41°09' W 008°48'2 4.2
2018-Aug-16 02:30N 41°07' W 008°48'2 0.6
2018-Aug-15 23:55N 41°08' W 008°50'4 7.3
2018-Aug-15 23:26N 41°12' W 008°50'1 1.3
2018-Aug-15 23:00N 41°12' W 008°50'5 9.1
2018-Aug-15 22:30N 41°08' W 008°47'4 7.5
2018-Aug-15 22:00N 41°10' W 008°43'1 0.0
2018-Aug-14 09:40N 41°11' W 008°42'0 0.0
2018-Aug-14 09:30N 41°11' W 008°42'0 0.0
2018-Aug-14 09:00N 41°11' W 008°42'0 0.0
2018-Aug-14 08:30N 41°11' W 008°42'0 0.0
2018-Aug-14 08:00N 41°11' W 008°42'1 1.2
2018-Aug-14 07:30N 41°10' W 008°42'5 0.5
2018-Aug-13 22:31N 41°15' W 008°45'1 9.1
2018-Aug-13 22:24N 41°14' W 008°45'4 9.1
2018-Aug-13 22:00N 41°10' W 008°43'1 0.1
2018-Aug-13 10:34N 41°11' W 008°42'0 0.0
2018-Aug-13 10:31N 41°11' W 008°42'0 0.0
2018-Aug-13 10:01N 41°11' W 008°42'0 0.0
2018-Aug-13 09:31N 41°11' W 008°42'0 0.0
2018-Aug-13 09:01N 41°11' W 008°42'0 0.0
2018-Aug-13 08:31N 41°11' W 008°42'5 0.5
2018-Aug-12 22:55N 41°13' W 008°48'4 9.8
2018-Aug-12 22:30N 41°11' W 008°43'  
2018-Aug-10 09:17N 41°11' W 008°42'0 0.0
2018-Aug-10 09:00N 41°11' W 008°42'0 0.0
2018-Aug-10 08:31N 41°11' W 008°42'0 0.0
2018-Aug-10 08:00N 41°11' W 008°42'0 0.0
2018-Aug-10 07:30N 41°11' W 008°42'4 7.6
2018-Aug-10 07:00N 41°14' W 008°45'1 0.1
2018-Aug-10 02:24N 41°15' W 008°45'3 8.1
2018-Aug-10 02:00N 41°12' W 008°44'2 3.0
2018-Aug-10 01:31N 41°11' W 008°42'0 0.0
2018-Aug-10 01:00N 41°11' W 008°42'0 0.0
2018-Aug-10 00:31N 41°11' W 008°42'0 0.0
2018-Aug-10 00:01N 41°11' W 008°42'0 0.0
2018-Aug-09 23:31N 41°11' W 008°42'0 0.0
2018-Aug-09 23:00N 41°11' W 008°42'0 0.0
2018-Aug-09 22:31N 41°11' W 008°42'0 0.0
2018-Aug-09 22:01N 41°11' W 008°42'0 0.0
2018-Aug-09 07:01N 41°11' W 008°42'0 0.0
2018-Aug-09 07:00N 41°11' W 008°42'2 4.9
2018-Aug-09 06:30N 41°08' W 008°42'1 0.6
2018-Aug-09 04:50N 41°08' W 008°42'310.0
2018-Aug-09 04:30N 41°11' W 008°42'0 0.5
2018-Aug-09 04:00N 41°11' W 008°42'0 0.0
2018-Aug-09 03:30N 41°11' W 008°42'0 0.0
2018-Aug-09 03:00N 41°11' W 008°42'0 0.0
2018-Aug-09 02:30N 41°11' W 008°42'0 0.0
2018-Aug-09 02:00N 41°11' W 008°42'0 0.0
2018-Aug-09 01:30N 41°11' W 008°42'2 3.2
2018-Aug-09 01:00N 41°09' W 008°43'2 0.9
2018-Aug-08 23:02N 41°09' W 008°45'010.0
2018-Aug-08 23:00N 41°09' W 008°45'3 5.5
2018-Aug-08 22:30N 41°11' W 008°42'0 0.0
2018-Aug-08 22:00N 41°11' W 008°42'0 0.2
2018-Aug-08 21:30N 41°11' W 008°42'0 0.0
2018-Aug-08 21:00N 41°11' W 008°42'0 0.0
2018-Aug-08 13:38N 41°11' W 008°42'0 0.0
2018-Aug-08 13:30N 41°11' W 008°42'0 0.0
2018-Aug-08 13:00N 41°11' W 008°42'0 0.0
2018-Aug-08 12:30N 41°11' W 008°42'0 0.0
2018-Aug-08 12:00N 41°11' W 008°42'0 0.0
2018-Aug-08 11:30N 41°11' W 008°42'0 0.6
2018-Aug-08 11:01N 41°11' W 008°42'7 1.3
2018-Aug-08 06:04N 41°04' W 008°41'1 1.2
2018-Aug-08 05:14N 41°05' W 008°42'3 9.6
2018-Aug-08 04:57N 41°07' W 008°43'4 8.4
2018-Aug-08 04:30N 41°11' W 008°42'0 0.0
2018-Aug-08 04:00N 41°11' W 008°42'0 0.0
2018-Aug-08 03:30N 41°11' W 008°42'0 0.0
2018-Aug-08 03:00N 41°11' W 008°42'0 0.0
2018-Aug-08 02:30N 41°11' W 008°42'0 0.0
2018-Aug-08 02:00N 41°11' W 008°42'0 0.0
2018-Aug-08 01:30N 41°11' W 008°42'0 0.0
2018-Aug-08 01:00N 41°11' W 008°42'0 0.0
2018-Aug-08 00:30N 41°11' W 008°42'0 0.0
2018-Aug-08 00:00N 41°11' W 008°42'0 0.0
2018-Aug-07 23:30N 41°11' W 008°42'0 0.0
2018-Aug-07 23:00N 41°11' W 008°42'0 0.0
2018-Aug-07 22:30N 41°11' W 008°42'0 0.0
2018-Aug-07 22:00N 41°11' W 008°42'  

Dump ship's entire track history